createdAt,value
2023-01-08T00:00:57.789Z,75.85
2023-01-08T00:03:24.892Z,76.22
2023-01-08T00:05:51.496Z,76.14
2023-01-08T00:08:17.866Z,76.16
2023-01-08T00:10:44.218Z,76.02
2023-01-08T00:13:10.734Z,75.91
2023-01-08T00:15:37.067Z,75.36
2023-01-08T00:18:05.862Z,75.34
2023-01-08T00:20:33.089Z,75.37
2023-01-08T00:22:59.432Z,75.00
2023-01-08T00:25:25.796Z,74.17
2023-01-08T00:27:52.153Z,74.63
2023-01-08T00:30:18.486Z,74.60
2023-01-08T00:32:44.833Z,74.66
2023-01-08T00:35:11.203Z,73.63
2023-01-08T00:37:37.544Z,73.72
2023-01-08T00:40:04.373Z,74.34
2023-01-08T00:42:30.714Z,74.33
2023-01-08T00:44:57.041Z,74.21
2023-01-08T00:47:23.378Z,74.43
2023-01-08T00:49:49.723Z,74.42
2023-01-08T00:52:16.067Z,74.52
2023-01-08T00:54:42.400Z,74.51
2023-01-08T00:57:08.755Z,74.59
2023-01-08T00:59:35.093Z,74.43
2023-01-08T01:02:01.586Z,75.39
2023-01-08T01:04:28.229Z,74.80
2023-01-08T01:06:54.690Z,74.61
2023-01-08T01:09:21.052Z,74.57
2023-01-08T01:11:47.393Z,75.03
2023-01-08T01:14:13.737Z,74.68
2023-01-08T01:16:41.536Z,74.38
2023-01-08T01:19:08.112Z,74.34
2023-01-08T01:21:34.620Z,74.55
2023-01-08T01:24:04.876Z,74.41
2023-01-08T01:26:31.883Z,74.57
2023-01-08T01:28:59.210Z,74.31
2023-01-08T01:31:27.642Z,74.49
2023-01-08T01:33:54.184Z,74.86
2023-01-08T01:36:25.204Z,75.17
2023-01-08T01:38:53.832Z,74.94
2023-01-08T01:41:29.810Z,75.00
2023-01-08T01:43:59.110Z,75.39
2023-01-08T01:46:39.479Z,74.98
2023-01-08T01:49:17.883Z,75.04
2023-01-08T01:51:55.682Z,74.95
2023-01-08T01:54:22.720Z,74.99
2023-01-08T01:56:49.698Z,74.79
2023-01-08T01:59:16.434Z,74.99
2023-01-08T02:01:43.588Z,74.52
2023-01-08T02:04:12.450Z,75.42
2023-01-08T02:06:45.035Z,75.03
2023-01-08T02:09:19.488Z,75.31
2023-01-08T02:12:13.961Z,75.57
2023-01-08T02:15:05.275Z,75.11
2023-01-08T02:17:53.026Z,75.47
2023-01-08T02:20:40.092Z,75.87
2023-01-08T02:23:23.106Z,75.93
2023-01-08T02:26:13.316Z,76.11
2023-01-08T02:28:44.781Z,76.48
2023-01-08T02:31:13.009Z,75.87
2023-01-08T02:33:39.565Z,76.51
2023-01-08T02:36:27.816Z,76.63
2023-01-08T02:39:02.438Z,76.42
2023-01-08T02:41:39.520Z,76.05
2023-01-08T02:44:09.630Z,76.05
2023-01-08T02:46:39.438Z,76.19
2023-01-08T02:49:10.179Z,76.01
2023-01-08T02:51:45.363Z,76.57
2023-01-08T02:54:17.544Z,76.81
2023-01-08T02:56:49.293Z,76.24
2023-01-08T02:59:16.773Z,76.86
2023-01-08T03:01:45.554Z,77.10
2023-01-08T03:04:23.592Z,76.75
2023-01-08T03:06:50.487Z,76.98
2023-01-08T03:09:17.545Z,76.78
2023-01-08T03:11:55.737Z,77.42
2023-01-08T03:14:28.231Z,77.31
2023-01-08T03:17:13.121Z,77.36
2023-01-08T03:19:47.181Z,77.32
2023-01-08T03:22:16.333Z,77.52
2023-01-08T03:24:46.727Z,77.04
2023-01-08T03:27:18.399Z,77.16
2023-01-08T03:29:48.986Z,76.71
2023-01-08T03:32:18.397Z,77.12
2023-01-08T03:34:47.856Z,77.44
2023-01-08T03:37:17.783Z,77.90
2023-01-08T03:39:51.681Z,78.02
2023-01-08T03:42:20.307Z,78.29
2023-01-08T03:44:47.063Z,77.96
2023-01-08T03:47:15.045Z,78.04
2023-01-08T03:49:43.964Z,78.09
2023-01-08T03:52:25.128Z,78.31
2023-01-08T03:54:51.854Z,78.32
2023-01-08T03:57:18.270Z,78.70
2023-01-08T03:59:44.710Z,78.69
2023-01-08T04:02:11.338Z,78.31
2023-01-08T04:04:38.358Z,77.98
2023-01-08T04:07:05.045Z,78.37
2023-01-08T04:09:31.395Z,78.46
2023-01-08T04:11:57.721Z,78.65
2023-01-08T04:14:24.066Z,78.67
2023-01-08T04:16:50.439Z,78.68
2023-01-08T04:19:16.852Z,78.86
2023-01-08T04:21:43.203Z,79.35
2023-01-08T04:24:11.636Z,79.34
2023-01-08T04:26:38.466Z,79.38
2023-01-08T04:29:05.188Z,79.31
2023-01-08T04:31:31.833Z,79.32
2023-01-08T04:33:58.246Z,79.26
2023-01-08T04:36:24.601Z,79.15
2023-01-08T04:38:50.933Z,78.91
2023-01-08T04:41:18.408Z,78.89
2023-01-08T04:43:44.957Z,78.99
2023-01-08T04:46:11.325Z,78.42
2023-01-08T04:48:37.978Z,78.57
2023-01-08T04:51:05.102Z,78.58
2023-01-08T04:53:34.857Z,78.25
2023-01-08T04:56:05.543Z,78.05
2023-01-08T04:58:33.145Z,78.04
2023-01-08T05:00:59.504Z,77.89
2023-01-08T05:03:26.107Z,77.58
2023-01-08T05:05:52.568Z,77.80
2023-01-08T05:08:18.895Z,77.72
2023-01-08T05:10:45.230Z,77.94
2023-01-08T05:13:11.623Z,77.81
2023-01-08T05:15:38.024Z,77.64
2023-01-08T05:18:05.877Z,77.67
2023-01-08T05:20:33.409Z,77.61
2023-01-08T05:22:59.827Z,77.56
2023-01-08T05:25:26.133Z,77.84
2023-01-08T05:27:52.828Z,78.25
2023-01-08T05:30:19.444Z,77.87
2023-01-08T05:32:45.788Z,77.20
2023-01-08T05:35:12.197Z,77.19
2023-01-08T05:37:39.105Z,76.78
2023-01-08T05:40:06.047Z,77.16
2023-01-08T05:42:34.312Z,76.90
2023-01-08T05:45:01.206Z,77.22
2023-01-08T05:47:31.827Z,77.16
2023-01-08T05:49:58.205Z,76.98
2023-01-08T05:52:25.217Z,77.41
2023-01-08T05:54:51.592Z,77.20
2023-01-08T05:57:17.919Z,76.97
2023-01-08T05:59:44.298Z,76.67
2023-01-08T06:02:10.736Z,76.41
2023-01-08T06:04:37.094Z,76.29
2023-01-08T06:07:03.482Z,76.46
2023-01-08T06:09:29.821Z,76.45
2023-01-08T06:11:58.034Z,76.93
2023-01-08T06:14:24.640Z,76.32
2023-01-08T06:16:51.075Z,76.36
2023-01-08T06:19:18.933Z,76.59
2023-01-08T06:21:45.468Z,75.68
2023-01-08T06:24:11.789Z,75.77
2023-01-08T06:26:38.200Z,75.44
2023-01-08T06:29:04.555Z,75.92
2023-01-08T06:31:30.926Z,75.99
2023-01-08T06:33:57.304Z,76.48
2023-01-08T06:36:23.629Z,76.19
2023-01-08T06:38:50.028Z,76.35
2023-01-08T06:41:17.333Z,76.91
2023-01-08T06:43:43.654Z,76.59
2023-01-08T06:46:10.531Z,76.72
2023-01-08T06:48:37.452Z,76.70
2023-01-08T06:51:04.730Z,76.72
2023-01-08T06:53:31.426Z,76.96
2023-01-08T06:55:58.687Z,77.74
2023-01-08T06:58:28.197Z,77.54
2023-01-08T07:00:54.647Z,80.25
2023-01-08T07:03:21.073Z,81.57
2023-01-08T07:05:49.890Z,82.75
2023-01-08T07:08:17.852Z,83.49
2023-01-08T07:10:45.432Z,82.30
2023-01-08T07:13:12.707Z,80.80
2023-01-08T07:15:40.877Z,81.34
2023-01-08T07:18:12.028Z,82.30
2023-01-08T07:20:39.056Z,82.91
2023-01-08T07:23:09.104Z,82.35
2023-01-08T07:25:35.506Z,81.81
2023-01-08T07:28:02.008Z,81.61
2023-01-08T07:30:30.402Z,80.60
2023-01-08T07:33:03.434Z,80.68
2023-01-08T07:35:30.118Z,80.79
2023-01-08T07:37:56.682Z,81.04
2023-01-08T07:40:23.176Z,82.11
2023-01-08T07:42:58.177Z,82.48
2023-01-08T07:45:24.594Z,83.09
2023-01-08T07:47:50.910Z,83.88
2023-01-08T07:50:17.270Z,84.55
2023-01-08T07:52:43.607Z,83.88
2023-01-08T07:55:09.964Z,84.04
2023-01-08T07:57:36.284Z,84.35
2023-01-08T08:00:02.657Z,84.66
2023-01-08T08:02:33.711Z,84.91
2023-01-08T08:05:00.178Z,84.81
2023-01-08T08:07:26.505Z,85.62
2023-01-08T08:09:52.837Z,85.12
2023-01-08T08:12:19.156Z,85.08
2023-01-08T08:14:45.475Z,84.90
2023-01-08T08:17:11.823Z,84.22
2023-01-08T08:19:38.184Z,84.60
2023-01-08T08:22:04.508Z,84.50
2023-01-08T08:24:30.844Z,84.87
2023-01-08T08:26:57.199Z,84.11
2023-01-08T08:29:23.526Z,84.33
2023-01-08T08:31:49.967Z,83.75
2023-01-08T08:34:16.312Z,83.88
2023-01-08T08:36:42.649Z,83.81
2023-01-08T08:39:09.278Z,83.64
2023-01-08T08:41:35.868Z,83.25
2023-01-08T08:44:02.243Z,83.16
2023-01-08T08:46:29.449Z,82.52
2023-01-08T08:48:55.837Z,82.38
2023-01-08T08:51:22.554Z,82.50
2023-01-08T08:53:48.878Z,83.10
2023-01-08T08:56:15.209Z,82.47
2023-01-08T08:58:41.890Z,82.57
2023-01-08T09:01:08.563Z,82.34
2023-01-08T09:03:35.216Z,81.36
2023-01-08T09:06:01.718Z,81.45
2023-01-08T09:08:28.297Z,80.94
2023-01-08T09:10:56.764Z,80.16
2023-01-08T09:13:23.157Z,79.79
2023-01-08T09:15:49.601Z,79.73
2023-01-08T09:18:19.083Z,79.52
2023-01-08T09:20:45.456Z,79.05
2023-01-08T09:23:11.846Z,78.35
2023-01-08T09:25:38.206Z,78.09
2023-01-08T09:28:07.202Z,77.28
2023-01-08T09:30:34.151Z,76.66
2023-01-08T09:33:03.306Z,77.42
2023-01-08T09:35:31.081Z,75.97
2023-01-08T09:37:57.697Z,75.07
2023-01-08T09:40:54.822Z,75.56
2023-01-08T09:43:24.478Z,74.04
2023-01-08T09:45:54.995Z,74.29
2023-01-08T09:48:25.672Z,73.73
2023-01-08T09:50:52.076Z,73.28
2023-01-08T09:53:18.976Z,73.85
2023-01-08T09:56:09.682Z,73.68
2023-01-08T09:58:50.413Z,73.76
2023-01-08T10:01:20.110Z,73.11
2023-01-08T10:03:50.514Z,73.14
2023-01-08T10:06:17.643Z,72.93
2023-01-08T10:11:16.287Z,72.58
2023-01-08T10:13:48.161Z,72.14
2023-01-08T10:16:26.837Z,72.30
2023-01-08T10:18:53.222Z,72.38
2023-01-08T10:21:19.639Z,72.49
2023-01-08T10:23:53.040Z,73.08
2023-01-08T10:26:37.552Z,72.49
2023-01-08T10:29:18.725Z,72.45
2023-01-08T10:31:49.888Z,73.22
2023-01-08T10:34:25.938Z,71.70
2023-01-08T10:36:54.680Z,71.57
2023-01-08T10:39:25.397Z,71.26
2023-01-08T10:41:55.318Z,71.08
2023-01-08T10:44:24.254Z,71.07
2023-01-08T10:46:55.963Z,70.11
2023-01-08T10:49:43.487Z,69.64
2023-01-08T10:52:33.091Z,69.99
2023-01-08T10:55:24.865Z,68.96
2023-01-08T10:58:00.437Z,67.69
2023-01-08T11:00:37.257Z,68.03
2023-01-08T11:03:40.357Z,67.93
2023-01-08T11:06:18.937Z,67.50
2023-01-08T11:08:51.741Z,67.47
2023-01-08T11:11:18.928Z,66.68
2023-01-08T11:13:58.840Z,66.94
2023-01-08T11:16:40.826Z,67.03
2023-01-08T11:19:22.661Z,65.72
2023-01-08T11:22:00.432Z,66.68
2023-01-08T11:24:34.082Z,66.08
2023-01-08T11:27:09.717Z,65.31
2023-01-08T11:29:50.850Z,65.57
2023-01-08T11:32:48.309Z,66.86
2023-01-08T11:35:29.918Z,65.90
2023-01-08T11:37:59.429Z,66.44
2023-01-08T11:40:52.932Z,66.16
2023-01-08T11:43:41.051Z,67.45
2023-01-08T11:46:33.892Z,66.76
2023-01-08T11:49:06.131Z,67.28
2023-01-08T11:52:06.638Z,66.35
2023-01-08T11:54:39.021Z,66.39
2023-01-08T11:57:36.190Z,67.32
2023-01-08T12:00:35.049Z,68.30
2023-01-08T12:03:09.714Z,68.70
2023-01-08T12:05:56.315Z,68.15
2023-01-08T12:08:40.634Z,67.93
2023-01-08T12:11:12.341Z,68.08
2023-01-08T12:14:05.957Z,68.85
2023-01-08T12:17:01.823Z,68.39
2023-01-08T12:19:42.253Z,69.11
2023-01-08T12:22:31.354Z,69.25
2023-01-08T12:25:21.421Z,69.28
2023-01-08T12:28:06.314Z,68.76
2023-01-08T12:31:06.623Z,69.60
2023-01-08T12:33:51.193Z,71.94
2023-01-08T12:36:25.899Z,70.26
2023-01-08T12:39:15.751Z,73.60
2023-01-08T12:41:45.889Z,76.68
2023-01-08T12:44:19.147Z,78.55
2023-01-08T12:46:46.092Z,79.42
2023-01-08T12:49:21.126Z,80.25
2023-01-08T12:52:01.798Z,80.50
2023-01-08T12:55:04.690Z,80.96
2023-01-08T12:57:38.732Z,83.09
2023-01-08T13:00:23.540Z,82.83
2023-01-08T13:03:00.216Z,82.00
2023-01-08T13:05:37.714Z,82.20
2023-01-08T13:08:21.758Z,82.48
2023-01-08T13:10:51.502Z,83.52
2023-01-08T13:13:44.437Z,82.23
2023-01-08T13:16:19.913Z,81.77
2023-01-08T13:19:00.952Z,81.71
2023-01-08T13:21:31.361Z,80.73
2023-01-08T13:24:23.461Z,81.12
2023-01-08T13:26:49.797Z,81.04
2023-01-08T13:29:26.166Z,80.51
2023-01-08T13:31:52.941Z,80.78
2023-01-08T13:34:22.434Z,79.93
2023-01-08T13:36:56.830Z,80.02
2023-01-08T13:39:31.179Z,79.25
2023-01-08T13:42:00.430Z,79.44
2023-01-08T13:44:34.084Z,79.29
2023-01-08T13:47:04.361Z,79.23
2023-01-08T13:49:44.023Z,79.07
2023-01-08T13:52:31.437Z,78.29
2023-01-08T13:54:59.566Z,78.14
2023-01-08T13:57:25.959Z,78.38
2023-01-08T13:59:55.639Z,78.55
2023-01-08T14:02:26.750Z,78.83
2023-01-08T14:04:54.160Z,78.47
2023-01-08T14:07:20.941Z,77.91
2023-01-08T14:09:47.294Z,77.48
2023-01-08T14:12:20.289Z,77.01
2023-01-08T14:14:51.357Z,77.22
2023-01-08T14:17:20.083Z,76.87
2023-01-08T14:19:47.336Z,76.33
2023-01-08T14:22:31.980Z,76.27
2023-01-08T14:25:02.541Z,76.49
2023-01-08T14:27:31.151Z,76.64
2023-01-08T14:29:58.267Z,76.02
2023-01-08T14:32:29.251Z,76.65
2023-01-08T14:34:58.511Z,75.59
2023-01-08T14:37:25.090Z,74.94
2023-01-08T14:39:54.535Z,74.72
2023-01-08T14:42:44.146Z,72.97
2023-01-08T14:45:44.701Z,73.28
2023-01-08T14:48:17.751Z,72.29
2023-01-08T14:50:53.391Z,72.47
2023-01-08T14:53:28.409Z,71.87
2023-01-08T14:55:56.874Z,71.68
2023-01-08T14:58:26.689Z,71.78
2023-01-08T15:00:57.729Z,71.13
2023-01-08T15:03:39.150Z,71.75
2023-01-08T15:06:07.338Z,71.62
2023-01-08T15:08:42.443Z,71.87
2023-01-08T15:11:23.140Z,72.47
2023-01-08T15:13:51.437Z,72.37
2023-01-08T15:16:30.931Z,72.33
2023-01-08T15:19:12.731Z,73.39
2023-01-08T15:21:45.241Z,72.31
2023-01-08T15:24:23.155Z,73.15
2023-01-08T15:26:49.613Z,72.40
2023-01-08T15:29:33.937Z,72.99
2023-01-08T15:32:22.117Z,72.80
2023-01-08T15:34:49.000Z,72.37
2023-01-08T15:37:16.144Z,72.34
2023-01-08T15:39:43.012Z,72.37
2023-01-08T15:42:37.412Z,72.75
2023-01-08T15:45:06.202Z,72.02
2023-01-08T15:47:32.536Z,71.75
2023-01-08T15:49:58.914Z,71.25
2023-01-08T15:52:31.039Z,70.93
2023-01-08T15:54:58.501Z,71.15
2023-01-08T15:57:25.173Z,70.89
2023-01-08T15:59:51.714Z,70.64
2023-01-08T16:02:18.675Z,70.70
2023-01-08T16:04:45.067Z,70.59
2023-01-08T16:07:11.454Z,70.55
2023-01-08T16:09:37.813Z,70.17
2023-01-08T16:12:05.330Z,70.38
2023-01-08T16:14:34.092Z,70.69
2023-01-08T16:17:01.367Z,70.00
2023-01-08T16:19:29.878Z,70.50
2023-01-08T16:21:56.527Z,70.32
2023-01-08T16:24:22.835Z,70.42
2023-01-08T16:26:49.174Z,70.02
2023-01-08T16:29:15.578Z,70.71
2023-01-08T16:31:46.857Z,70.41
2023-01-08T16:34:14.349Z,70.60
2023-01-08T16:36:40.793Z,70.91
2023-01-08T16:39:07.558Z,71.18
2023-01-08T16:41:33.886Z,71.60
2023-01-08T16:44:00.205Z,71.59
2023-01-08T16:46:26.775Z,71.54
2023-01-08T16:48:53.108Z,71.04
2023-01-08T16:51:21.065Z,71.88
2023-01-08T16:53:47.719Z,71.57
2023-01-08T16:56:14.039Z,70.63
2023-01-08T16:58:40.363Z,71.15
2023-01-08T17:01:09.362Z,71.32
2023-01-08T17:03:35.977Z,72.00
2023-01-08T17:06:09.111Z,71.33
2023-01-08T17:08:39.826Z,71.08
2023-01-08T17:11:11.457Z,71.68
2023-01-08T17:13:38.359Z,71.68
2023-01-08T17:16:06.718Z,72.08
2023-01-08T17:18:33.295Z,72.68
2023-01-08T17:20:59.788Z,72.35
2023-01-08T17:23:29.381Z,71.73
2023-01-08T17:25:57.239Z,71.50
2023-01-08T17:28:28.430Z,71.54
2023-01-08T17:31:02.102Z,71.27
2023-01-08T17:33:28.455Z,71.85
2023-01-08T17:35:54.783Z,71.44
2023-01-08T17:38:21.108Z,71.34
2023-01-08T17:40:47.426Z,71.55
2023-01-08T17:43:13.758Z,71.36
2023-01-08T17:45:40.132Z,71.14
2023-01-08T17:48:06.716Z,71.02
2023-01-08T17:50:33.621Z,71.55
2023-01-08T17:53:00.113Z,71.60
2023-01-08T17:55:26.975Z,70.73
2023-01-08T17:57:53.314Z,70.51
2023-01-08T18:00:20.232Z,70.81
2023-01-08T18:02:46.635Z,70.91
2023-01-08T18:05:13.016Z,70.94
2023-01-08T18:07:39.416Z,71.65
2023-01-08T18:10:06.376Z,70.93
2023-01-08T18:12:32.883Z,71.25
2023-01-08T18:14:59.304Z,71.27
2023-01-08T18:17:25.711Z,71.70
2023-01-08T18:19:52.161Z,71.65
2023-01-08T18:22:20.418Z,71.95
2023-01-08T18:24:47.095Z,71.95
2023-01-08T18:27:13.430Z,72.07
2023-01-08T18:29:39.865Z,71.96
2023-01-08T18:32:08.351Z,72.06
2023-01-08T18:34:34.742Z,72.13
2023-01-08T18:37:01.113Z,72.17
2023-01-08T18:39:29.430Z,72.10
2023-01-08T18:42:14.239Z,72.63
2023-01-08T18:44:40.556Z,72.10
2023-01-08T18:47:06.897Z,72.58
2023-01-08T18:49:33.217Z,72.15
2023-01-08T18:51:59.754Z,72.04
2023-01-08T18:54:26.139Z,72.19
2023-01-08T18:56:52.461Z,71.85
2023-01-08T18:59:18.831Z,72.31
2023-01-08T19:01:45.354Z,72.36
2023-01-08T19:04:16.538Z,72.28
2023-01-08T19:06:42.864Z,73.12
2023-01-08T19:09:09.361Z,73.12
2023-01-08T19:11:36.142Z,72.87
2023-01-08T19:14:02.566Z,72.89
2023-01-08T19:16:28.941Z,72.50
2023-01-08T19:18:56.527Z,73.08
2023-01-08T19:21:22.990Z,72.66
2023-01-08T19:23:49.625Z,73.12
2023-01-08T19:26:16.649Z,73.10
2023-01-08T19:28:43.631Z,73.72
2023-01-08T19:31:16.002Z,73.22
2023-01-08T19:33:43.695Z,73.23
2023-01-08T19:36:15.608Z,72.83
2023-01-08T19:38:43.240Z,73.74
2023-01-08T19:41:30.165Z,73.81
2023-01-08T19:43:57.387Z,73.55
2023-01-08T19:46:24.175Z,73.88
2023-01-08T19:48:50.823Z,73.81
2023-01-08T19:51:17.281Z,74.55
2023-01-08T19:53:43.798Z,74.57
2023-01-08T19:56:13.944Z,74.23
2023-01-08T19:58:40.883Z,73.97
2023-01-08T20:01:12.858Z,74.81
2023-01-08T20:03:39.846Z,74.62
2023-01-08T20:06:12.389Z,74.17
2023-01-08T20:08:38.992Z,74.52
2023-01-08T20:11:10.606Z,74.04
2023-01-08T20:13:37.941Z,74.52
2023-01-08T20:16:06.320Z,74.62
2023-01-08T20:18:33.855Z,74.70
2023-01-08T20:21:05.208Z,74.36
2023-01-08T20:23:31.741Z,74.83
2023-01-08T20:26:03.798Z,74.48
2023-01-08T20:28:30.193Z,74.54
2023-01-08T20:30:56.598Z,73.80
2023-01-08T20:33:22.990Z,73.99
2023-01-08T20:35:52.271Z,74.29
2023-01-08T20:38:18.710Z,73.87
2023-01-08T20:40:45.048Z,73.98
2023-01-08T20:43:11.382Z,74.04
2023-01-08T20:45:40.312Z,73.88
2023-01-08T20:48:06.961Z,74.02
2023-01-08T20:50:33.293Z,74.58
2023-01-08T20:52:59.679Z,74.32
2023-01-08T20:55:26.110Z,74.65
2023-01-08T20:57:52.443Z,74.46
2023-01-08T21:00:19.401Z,74.50
2023-01-08T21:02:46.275Z,74.13
2023-01-08T21:05:12.647Z,74.38
2023-01-08T21:07:38.971Z,74.38
2023-01-08T21:10:05.868Z,74.68
2023-01-08T21:12:32.386Z,74.20
2023-01-08T21:14:58.720Z,74.14
2023-01-08T21:17:25.088Z,74.59
2023-01-08T21:19:51.419Z,74.68
2023-01-08T21:22:17.812Z,75.06
2023-01-08T21:24:44.145Z,74.75
2023-01-08T21:27:10.528Z,74.25
2023-01-08T21:29:36.837Z,74.32
2023-01-08T21:32:03.877Z,74.29
2023-01-08T21:34:30.223Z,73.94
2023-01-08T21:36:56.915Z,73.97
2023-01-08T21:39:24.700Z,74.21
2023-01-08T21:42:09.674Z,75.06
2023-01-08T21:44:54.463Z,75.97
2023-01-08T21:47:20.861Z,75.84
2023-01-08T21:49:47.423Z,75.55
2023-01-08T21:52:32.954Z,75.54
2023-01-08T21:54:59.506Z,75.70
2023-01-08T21:57:27.751Z,75.86
2023-01-08T21:59:54.667Z,75.23
2023-01-08T22:02:23.188Z,75.63
2023-01-08T22:04:49.802Z,75.91
2023-01-08T22:07:16.658Z,75.79
2023-01-08T22:09:42.983Z,76.07
2023-01-08T22:12:09.653Z,75.93
2023-01-08T22:14:36.169Z,75.86
2023-01-08T22:17:03.932Z,75.83
2023-01-08T22:19:30.341Z,75.56
2023-01-08T22:21:56.750Z,75.43
2023-01-08T22:24:23.057Z,75.87
2023-01-08T22:26:50.191Z,75.46
2023-01-08T22:29:16.936Z,75.26
2023-01-08T22:31:43.394Z,75.54
2023-01-08T22:34:14.012Z,75.83
2023-01-08T22:36:40.339Z,75.90
2023-01-08T22:39:06.697Z,76.12
2023-01-08T22:41:33.054Z,76.63
2023-01-08T22:43:59.407Z,76.68
2023-01-08T22:46:25.779Z,77.25
2023-01-08T22:48:52.301Z,77.19
2023-01-08T22:51:27.868Z,78.31
2023-01-08T22:53:55.280Z,79.45
2023-01-08T22:56:21.662Z,79.80
2023-01-08T22:58:48.062Z,79.66
2023-01-08T23:01:17.184Z,80.29
2023-01-08T23:03:44.567Z,80.54
2023-01-08T23:06:16.473Z,81.72
2023-01-08T23:08:43.924Z,81.76
2023-01-08T23:11:12.210Z,82.16
2023-01-08T23:13:39.289Z,82.24
2023-01-08T23:16:08.171Z,82.76
2023-01-08T23:18:36.096Z,83.87
2023-01-08T23:21:11.395Z,83.91
2023-01-08T23:23:37.977Z,84.09
2023-01-08T23:26:06.218Z,84.12
2023-01-08T23:28:32.601Z,84.18
2023-01-08T23:30:59.500Z,84.47
2023-01-08T23:33:26.399Z,84.31
2023-01-08T23:35:53.019Z,84.78
2023-01-08T23:38:19.403Z,84.59
2023-01-08T23:40:46.529Z,85.06
2023-01-08T23:43:12.907Z,85.84
2023-01-08T23:45:39.497Z,85.90
2023-01-08T23:48:06.460Z,86.43
2023-01-08T23:50:33.113Z,87.06
2023-01-08T23:52:59.476Z,87.10
2023-01-08T23:55:25.963Z,86.80
2023-01-08T23:57:52.526Z,86.55
